Time;durP1;ratioP1;P1;durP2;ratioP2;P2;SDS_P1;SDS_P2;PMS_P1;PMS_P2;Temp;Humidity;BMP_temperature;BMP_pressure;BME280_temperature;BME280_humidity;BME280_pressure;Samples;Min_cycle;Max_cycle;Signal;HPM_P1;HPM_P2
2022/04/21 00:00:34;;;;;;;20.50;13.10;;;10.50;56.90;;;;;;5116306;27;20027;-55
2022/04/21 00:03:01;;;;;;;16.08;11.98;;;10.50;57.00;;;;;;5115988;27;20043;-51
2022/04/21 00:05:26;;;;;;;17.05;12.30;;;10.50;57.10;;;;;;5115714;27;20051;-53
2022/04/21 00:07:53;;;;;;;16.38;11.88;;;10.50;57.10;;;;;;5134178;27;20471;-53
2022/04/21 00:10:19;;;;;;;13.85;11.65;;;10.50;57.30;;;;;;5133994;27;20039;-51
2022/04/21 00:12:45;;;;;;;15.40;10.55;;;10.50;57.40;;;;;;5134237;27;20077;-56
2022/04/21 00:15:11;;;;;;;14.20;11.25;;;10.40;57.60;;;;;;5133304;27;20462;-51
2022/04/21 00:17:37;;;;;;;15.45;11.35;;;10.30;57.60;;;;;;5115280;27;20061;-51
2022/04/21 00:20:04;;;;;;;14.30;11.38;;;10.30;57.80;;;;;;5132096;27;20059;-56
2022/04/21 00:25:13;;;;;;;;;;;10.30;57.90;;;;;;5134298;27;20049;-51
2022/04/21 00:27:40;;;;;;;14.10;11.57;;;10.20;58.20;;;;;;5134135;27;20005;-52
2022/04/21 00:30:07;;;;;;;13.27;10.65;;;10.20;58.00;;;;;;5133374;27;20124;-67
2022/04/21 00:32:34;;;;;;;13.27;10.85;;;10.10;58.10;;;;;;5133973;27;20091;-57
2022/04/21 00:35:00;;;;;;;16.05;12.10;;;10.10;58.20;;;;;;5113619;27;20029;-56
2022/04/21 00:37:26;;;;;;;14.50;12.30;;;10.10;58.20;;;;;;5115151;27;20087;-54
2022/04/21 00:39:52;;;;;;;15.77;12.77;;;10.10;58.20;;;;;;5133492;27;20031;-55
2022/04/21 00:42:18;;;;;;;18.02;12.57;;;10.10;58.10;;;;;;5129534;27;20506;-54
2022/04/21 00:44:43;;;;;;;16.90;13.85;;;10.10;58.20;;;;;;5098530;27;20025;-57
2022/04/21 00:47:10;;;;;;;16.42;12.77;;;10.10;58.10;;;;;;5133704;27;20042;-50
2022/04/21 00:49:36;;;;;;;17.80;12.25;;;10.10;58.00;;;;;;5133589;27;20031;-54
2022/04/21 00:52:02;;;;;;;18.27;12.18;;;10.10;58.00;;;;;;5133870;27;20030;-55
2022/04/21 00:54:33;;;;;;;20.40;13.05;;;10.10;58.00;;;;;;5130931;27;20031;-52
2022/04/21 00:57:03;;;;;;;16.08;12.35;;;10.10;58.00;;;;;;5115246;27;20023;-54
2022/04/21 00:59:29;;;;;;;18.23;14.05;;;10.10;58.10;;;;;;5111082;27;20036;-56
2022/04/21 01:04:41;;;;;;;22.10;14.70;;;10.10;58.10;;;;;;5131905;27;20076;-56
2022/04/21 01:07:08;;;;;;;17.95;13.45;;;10.10;58.10;;;;;;5132191;27;20032;-58
2022/04/21 01:09:38;;;;;;;16.75;13.02;;;10.10;58.20;;;;;;5132433;27;20106;-54
2022/04/21 01:12:10;;;;;;;15.40;12.65;;;10.10;58.20;;;;;;5130644;27;20061;-55
2022/04/21 01:14:39;;;;;;;13.80;12.07;;;10.00;58.40;;;;;;5114548;27;20547;-52
2022/04/21 01:17:06;;;;;;;14.23;11.68;;;9.90;58.40;;;;;;5130297;27;20035;-54
2022/04/21 01:19:33;;;;;;;16.02;12.07;;;9.90;58.50;;;;;;5131649;27;20066;-55
2022/04/21 01:21:59;;;;;;;16.10;12.35;;;9.90;58.50;;;;;;5130748;27;20032;-54
2022/04/21 01:24:26;;;;;;;16.67;12.00;;;10.00;58.60;;;;;;5130802;27;20181;-57
2022/04/21 01:26:54;;;;;;;17.17;11.07;;;9.90;58.60;;;;;;5131038;27;20431;-53
2022/04/21 01:29:19;;;;;;;15.63;11.80;;;9.90;58.60;;;;;;5130497;27;20357;-57
2022/04/21 01:31:46;;;;;;;13.52;11.07;;;9.90;58.60;;;;;;5114184;28;20490;-50
2022/04/21 01:34:11;;;;;;;17.60;12.38;;;9.90;58.60;;;;;;5129653;27;20023;-55
2022/04/21 01:41:08;;;;;;;17.63;14.25;;;10.00;58.60;;;;;;5132531;27;20482;-52
2022/04/21 01:42:12;;;;;;;;;;;9.90;57.90;;;;;;5131563;27;20071;-59
2022/04/21 01:44:37;;;;;;;19.73;14.70;;;9.90;57.60;;;;;;5131685;28;19994;-56
2022/04/21 01:47:03;;;;;;;19.33;15.43;;;9.90;58.00;;;;;;5112187;28;20487;-54
2022/04/21 01:49:29;;;;;;;22.75;16.20;;;9.90;57.30;;;;;;5132101;27;20026;-52
2022/04/21 01:51:55;;;;;;;18.45;15.10;;;9.90;57.30;;;;;;5111470;28;20102;-54
2022/04/21 01:54:21;;;;;;;20.27;16.15;;;9.90;57.20;;;;;;5113576;28;20030;-51
2022/04/21 01:56:47;;;;;;;20.20;15.80;;;9.90;57.20;;;;;;5111262;28;20551;-53
2022/04/21 01:59:13;;;;;;;18.70;16.13;;;9.90;57.20;;;;;;5131051;28;20023;-60
2022/04/21 02:01:39;;;;;;;18.65;14.93;;;9.90;57.30;;;;;;5112754;28;20031;-52
2022/04/21 02:04:05;;;;;;;20.52;16.48;;;9.80;57.20;;;;;;5111248;28;20468;-53
2022/04/21 02:06:30;;;;;;;20.90;16.90;;;9.80;57.50;;;;;;5128905;27;20026;-55
2022/04/21 02:08:57;;;;;;;20.98;16.98;;;9.70;57.50;;;;;;5113789;28;20023;-52
2022/04/21 02:11:23;;;;;;;19.50;16.05;;;9.70;57.60;;;;;;5111174;28;20024;-55
2022/04/21 02:13:49;;;;;;;22.02;16.35;;;9.70;57.50;;;;;;5131927;28;20110;-60
2022/04/21 02:16:15;;;;;;;21.00;16.65;;;9.70;57.60;;;;;;5111135;28;20110;-55
2022/04/21 02:18:41;;;;;;;20.38;16.10;;;9.70;57.40;;;;;;5112226;28;20540;-59
2022/04/21 02:21:06;;;;;;;20.48;16.85;;;9.70;57.40;;;;;;5130867;27;20031;-52
2022/04/21 02:23:32;;;;;;;20.08;16.85;;;9.80;57.30;;;;;;5129322;27;20019;-50
2022/04/21 02:25:58;;;;;;;21.05;16.75;;;9.80;57.30;;;;;;5113794;28;20026;-52
2022/04/21 02:28:25;;;;;;;22.00;16.35;;;9.80;57.10;;;;;;5110537;28;20075;-55
2022/04/21 02:30:51;;;;;;;22.77;16.95;;;9.60;57.20;;;;;;5132244;27;20023;-54
2022/04/21 02:33:16;;;;;;;24.80;16.88;;;9.60;57.40;;;;;;5128974;27;20029;-55
2022/04/21 02:35:43;;;;;;;22.73;17.42;;;9.60;57.50;;;;;;5113168;28;20024;-55
2022/04/21 02:38:08;;;;;;;22.05;17.35;;;9.50;57.50;;;;;;5131118;27;20020;-54
2022/04/21 02:40:34;;;;;;;21.65;17.55;;;9.50;57.50;;;;;;5114224;27;20472;-49
2022/04/21 02:43:00;;;;;;;23.42;17.67;;;9.50;57.60;;;;;;5135546;27;20126;-53
2022/04/21 02:45:26;;;;;;;23.13;17.10;;;9.50;57.60;;;;;;5113005;27;20052;-56
2022/04/21 02:47:52;;;;;;;19.95;16.60;;;9.50;57.80;;;;;;5117234;27;20026;-50
2022/04/21 02:50:19;;;;;;;22.08;16.02;;;9.40;57.70;;;;;;5114286;27;20023;-51
2022/04/21 02:52:46;;;;;;;20.83;16.48;;;9.50;57.70;;;;;;5134752;27;20051;-58
2022/04/21 02:57:58;;;;;;;20.52;17.20;;;9.40;57.90;;;;;;5133729;27;20483;-58
2022/04/21 03:00:23;;;;;;;22.58;17.63;;;9.40;58.00;;;;;;5134348;27;20100;-50
2022/04/21 03:02:49;;;;;;;23.08;18.00;;;9.40;57.90;;;;;;5114271;27;20052;-51
2022/04/21 03:05:15;;;;;;;22.90;18.15;;;9.40;57.80;;;;;;5116781;27;20437;-50
2022/04/21 03:07:40;;;;;;;24.30;17.90;;;9.40;57.90;;;;;;5131713;27;20029;-50
2022/04/21 03:10:06;;;;;;;22.38;17.38;;;9.40;57.90;;;;;;5116493;27;20408;-52
2022/04/21 03:12:32;;;;;;;21.98;18.33;;;9.40;58.20;;;;;;5132186;27;20027;-52
2022/04/21 03:14:58;;;;;;;24.17;18.33;;;9.40;58.60;;;;;;5115955;27;20019;-52
2022/04/21 03:17:24;;;;;;;25.10;18.15;;;9.30;58.70;;;;;;5113937;27;20023;-54
2022/04/21 03:19:51;;;;;;;22.80;17.48;;;9.30;58.80;;;;;;5133031;27;20037;-52
2022/04/21 03:25:03;;;;;;;21.05;17.67;;;9.30;58.70;;;;;;5132925;27;20033;-52
2022/04/21 03:27:29;;;;;;;22.67;17.63;;;9.30;58.70;;;;;;5115870;27;20158;-57
2022/04/21 03:29:58;;;;;;;22.17;17.52;;;9.30;58.90;;;;;;5114098;27;20023;-50
2022/04/21 03:32:25;;;;;;;22.17;17.13;;;9.30;58.90;;;;;;5114526;27;20115;-49
2022/04/21 03:34:53;;;;;;;25.30;17.55;;;9.30;58.80;;;;;;5130507;27;20034;-51
2022/04/21 03:37:38;;;;;;;24.13;17.90;;;9.30;58.90;;;;;;5134313;27;20107;-64
2022/04/21 03:40:04;;;;;;;24.15;18.10;;;9.30;59.10;;;;;;5132582;27;20027;-50
2022/04/21 03:42:31;;;;;;;20.27;17.23;;;9.20;59.40;;;;;;5133562;27;20088;-61
2022/04/21 03:44:58;;;;;;;22.00;18.42;;;9.20;59.50;;;;;;5131952;27;20034;-55
2022/04/21 03:47:23;;;;;;;24.98;18.63;;;9.20;59.60;;;;;;5132663;27;20051;-56
2022/04/21 03:49:49;;;;;;;23.15;18.42;;;9.20;60.30;;;;;;5113540;27;20111;-50
2022/04/21 03:52:17;;;;;;;24.38;17.63;;;9.20;59.70;;;;;;5131763;27;20039;-50
2022/04/21 03:54:43;;;;;;;20.70;17.35;;;9.20;59.60;;;;;;5133871;27;20122;-52
2022/04/21 03:57:09;;;;;;;23.55;16.27;;;9.20;59.60;;;;;;5131700;27;20428;-53
2022/04/21 03:59:35;;;;;;;22.27;16.13;;;9.20;60.00;;;;;;5133425;27;20023;-51
2022/04/21 04:02:04;;;;;;;21.48;16.35;;;9.20;60.20;;;;;;5130795;27;20310;-53
2022/04/21 04:04:31;;;;;;;22.08;16.42;;;9.10;60.40;;;;;;5115224;27;20476;-53
2022/04/21 04:12:34;;;;;;;23.05;16.42;;;9.00;61.00;;;;;;5133122;27;20211;-53
2022/04/21 04:15:01;;;;;;;21.08;16.98;;;9.00;61.30;;;;;;5132918;27;20049;-58
2022/04/21 04:17:27;;;;;;;24.10;16.58;;;8.90;61.50;;;;;;5113411;27;20034;-52
2022/04/21 04:19:53;;;;;;;25.23;16.45;;;8.90;61.60;;;;;;5131631;27;20023;-48
2022/04/21 04:22:19;;;;;;;21.60;17.05;;;8.80;61.80;;;;;;5114776;27;20058;-55
2022/04/21 04:24:45;;;;;;;21.02;17.23;;;8.80;61.90;;;;;;5111981;27;20106;-47
2022/04/21 04:27:11;;;;;;;25.60;17.77;;;8.80;62.10;;;;;;5115333;27;20364;-49
2022/04/21 04:29:37;;;;;;;21.42;17.05;;;8.80;62.20;;;;;;5112140;27;20027;-49
2022/04/21 04:32:03;;;;;;;24.27;19.30;;;8.80;62.20;;;;;;5114665;27;20019;-56
2022/04/21 04:34:29;;;;;;;26.63;18.30;;;8.80;63.00;;;;;;5130767;27;20015;-51
2022/04/21 04:36:55;;;;;;;23.70;18.55;;;8.80;62.30;;;;;;5113244;27;20019;-60
2022/04/21 04:39:20;;;;;;;30.75;18.23;;;8.80;62.20;;;;;;5113692;27;20016;-50
2022/04/21 04:44:30;;;;;;;24.60;19.73;;;8.90;62.20;;;;;;5090212;28;20027;-55
2022/04/21 04:46:56;;;;;;;25.60;18.52;;;8.90;61.70;;;;;;5091386;28;20028;-61
2022/04/21 04:49:23;;;;;;;25.02;18.83;;;8.90;61.90;;;;;;5072966;28;20503;-52
2022/04/21 04:51:48;;;;;;;25.25;19.55;;;8.90;61.90;;;;;;5088456;28;20024;-57
2022/04/21 04:54:15;;;;;;;24.88;19.90;;;9.00;61.90;;;;;;5090875;28;20465;-55
2022/04/21 04:56:43;;;;;;;30.63;21.70;;;9.00;61.60;;;;;;5087674;28;20109;-58
2022/04/21 04:59:09;;;;;;;31.90;24.10;;;9.10;61.30;;;;;;5092522;28;20031;-53
2022/04/21 05:01:41;;;;;;;33.35;24.40;;;9.10;60.50;;;;;;5087590;28;20028;-54
2022/04/21 05:04:18;;;;;;;34.78;25.27;;;9.10;60.20;;;;;;5090962;28;20425;-54
2022/04/21 05:06:46;;;;;;;30.50;24.15;;;9.20;60.00;;;;;;5090408;28;20028;-58
2022/04/21 05:09:16;;;;;;;33.22;22.92;;;9.30;59.80;;;;;;5090831;28;20165;-53
2022/04/21 05:11:44;;;;;;;27.55;21.35;;;9.30;59.80;;;;;;5091674;28;20020;-52
2022/04/21 05:14:10;;;;;;;27.48;19.23;;;9.30;60.20;;;;;;5090207;28;20047;-51
2022/04/21 05:16:37;;;;;;;27.60;19.65;;;9.30;60.50;;;;;;5090017;28;20062;-50
2022/04/21 05:19:07;;;;;;;25.08;20.85;;;9.30;60.60;;;;;;5089733;28;20024;-58
2022/04/21 05:21:35;;;;;;;25.30;19.30;;;9.30;60.70;;;;;;5091263;28;20056;-55
2022/04/21 05:24:01;;;;;;;28.42;19.23;;;9.40;60.70;;;;;;5091881;28;20427;-55
2022/04/21 05:26:29;;;;;;;29.98;19.40;;;9.40;60.70;;;;;;5089735;28;20024;-63
2022/04/21 05:31:59;;;;;;;33.50;20.70;;;9.40;60.60;;;;;;5091875;28;20120;-52
2022/04/21 05:34:27;;;;;;;29.02;21.92;;;9.50;60.40;;;;;;5091475;28;20079;-55
2022/04/21 05:36:53;;;;;;;41.35;25.42;;;9.60;60.10;;;;;;5091570;28;20028;-51
2022/04/21 05:39:21;;;;;;;35.80;26.23;;;9.60;59.60;;;;;;5091697;28;20404;-48
2022/04/21 05:41:48;;;;;;;50.72;25.98;;;9.60;59.30;;;;;;5108072;27;20043;-53
2022/04/21 05:44:14;;;;;;;35.15;24.35;;;9.70;59.30;;;;;;5114274;28;20030;-56
2022/04/21 05:46:40;;;;;;;32.83;23.95;;;9.80;59.10;;;;;;5131833;28;20379;-51
2022/04/21 05:49:06;;;;;;;36.40;25.75;;;9.90;58.80;;;;;;5132233;27;20030;-51
2022/04/21 05:51:32;;;;;;;40.75;25.13;;;10.00;58.30;;;;;;5112356;28;20034;-61
2022/04/21 05:53:58;;;;;;;36.70;25.20;;;10.10;57.80;;;;;;5113363;28;20020;-54
2022/04/21 05:56:25;;;;;;;42.05;25.25;;;10.00;57.60;;;;;;5131634;28;20080;-53
2022/04/21 05:58:51;;;;;;;38.58;25.27;;;10.10;57.50;;;;;;5112780;28;20023;-54
2022/04/21 06:01:17;;;;;;;33.30;24.65;;;10.20;57.40;;;;;;5113212;28;20027;-51
2022/04/21 06:03:43;;;;;;;42.97;25.38;;;10.20;57.40;;;;;;5131147;27;20058;-49
2022/04/21 06:06:09;;;;;;;50.67;33.47;;;10.30;57.10;;;;;;5113616;28;20055;-55
2022/04/21 06:08:36;;;;;;;34.08;26.42;;;10.40;57.10;;;;;;5131348;27;20027;-56
2022/04/21 06:11:06;;;;;;;40.80;28.33;;;10.40;57.10;;;;;;5112996;28;20023;-55
2022/04/21 06:13:32;;;;;;;42.53;27.63;;;10.40;57.00;;;;;;5133326;27;20110;-63
2022/04/21 06:15:58;;;;;;;35.65;26.80;;;10.40;56.70;;;;;;5117205;27;20031;-56
2022/04/21 06:18:25;;;;;;;40.35;26.85;;;10.40;56.70;;;;;;5117526;27;20027;-55
2022/04/21 06:20:52;;;;;;;37.60;26.63;;;10.40;56.40;;;;;;5135089;27;20023;-54
2022/04/21 06:23:18;;;;;;;37.75;27.00;;;10.50;56.50;;;;;;5117250;27;20038;-53
2022/04/21 06:25:45;;;;;;;41.80;26.77;;;10.50;56.30;;;;;;5134443;27;20015;-52
2022/04/21 06:28:11;;;;;;;39.10;29.13;;;10.70;55.90;;;;;;5135233;27;20098;-54
2022/04/21 06:30:37;;;;;;;38.03;26.75;;;10.60;56.10;;;;;;5134592;27;20107;-52
2022/04/21 06:33:03;;;;;;;50.90;27.25;;;10.70;56.00;;;;;;5116313;27;20380;-56
2022/04/21 06:35:29;;;;;;;75.45;26.88;;;10.70;56.10;;;;;;5135314;27;20384;-50
2022/04/21 06:37:55;;;;;;;42.03;26.48;;;10.70;56.10;;;;;;5134817;27;20264;-53
2022/04/21 06:40:22;;;;;;;47.38;25.45;;;10.70;55.90;;;;;;5135191;27;20027;-54
2022/04/21 06:42:49;;;;;;;44.70;25.98;;;10.80;56.00;;;;;;5134743;27;20050;-55
2022/04/21 06:48:03;;;;;;;47.58;26.70;;;11.00;55.40;;;;;;5135286;27;20029;-55
2022/04/21 06:50:39;;;;;;;50.90;25.50;;;11.10;55.00;;;;;;5135266;27;20030;-52
2022/04/21 06:53:07;;;;;;;52.10;25.63;;;11.20;54.90;;;;;;5135378;27;20185;-55
2022/04/21 06:55:34;;;;;;;56.15;26.40;;;11.20;54.90;;;;;;5116693;27;20023;-56
2022/04/21 06:58:01;;;;;;;43.30;25.20;;;11.20;54.80;;;;;;5115959;27;20095;-55
2022/04/21 07:00:27;;;;;;;41.30;26.33;;;11.40;54.70;;;;;;5116591;27;20039;-57
2022/04/21 07:02:57;;;;;;;40.28;25.30;;;11.50;54.40;;;;;;5134809;27;20019;-56
2022/04/21 07:05:27;;;;;;;36.28;25.58;;;11.70;54.10;;;;;;5135383;27;20023;-53
2022/04/21 07:07:53;;;;;;;35.90;26.30;;;11.80;53.80;;;;;;5134584;27;20167;-52
2022/04/21 07:10:20;;;;;;;33.83;25.45;;;12.00;53.40;;;;;;5134991;27;20098;-56
2022/04/21 07:12:46;;;;;;;33.10;23.10;;;12.60;52.80;;;;;;5133532;27;20023;-55
2022/04/21 07:15:13;;;;;;;25.55;22.90;;;15.70;51.80;;;;;;5135015;27;20049;-54
2022/04/21 07:17:40;;;;;;;28.58;22.92;;;19.30;43.60;;;;;;5134410;27;20019;-64
2022/04/21 07:20:08;;;;;;;25.25;21.33;;;22.20;36.80;;;;;;5116513;27;20068;-54
2022/04/21 07:22:34;;;;;;;23.55;20.60;;;24.40;34.40;;;;;;5134755;27;20023;-57
2022/04/21 07:25:03;;;;;;;23.45;19.92;;;26.50;30.50;;;;;;5133951;27;20011;-60
2022/04/21 07:27:29;;;;;;;22.27;19.73;;;28.00;29.20;;;;;;5134483;27;20030;-57
2022/04/21 07:29:55;;;;;;;22.10;19.65;;;29.60;27.60;;;;;;5134080;27;20106;-59
2022/04/21 07:32:20;;;;;;;26.10;19.70;;;30.90;26.70;;;;;;5116004;27;20023;-57
2022/04/21 07:34:46;;;;;;;20.70;18.50;;;32.10;25.80;;;;;;5115757;27;20118;-56
2022/04/21 07:37:12;;;;;;;20.85;18.67;;;32.90;24.70;;;;;;5115872;27;20521;-52
2022/04/21 07:39:40;;;;;;;20.15;17.83;;;33.60;23.90;;;;;;5111578;27;20035;-53
2022/04/21 07:42:10;;;;;;;26.83;18.35;;;34.10;23.80;;;;;;5135340;27;20046;-54
2022/04/21 07:44:37;;;;;;;22.55;18.73;;;35.10;23.30;;;;;;5116793;27;20110;-57
2022/04/21 07:47:04;;;;;;;21.52;19.50;;;35.40;22.70;;;;;;5115295;27;20030;-57
2022/04/21 07:49:45;;;;;;;24.50;18.98;;;35.30;22.20;;;;;;5115075;27;20035;-56
2022/04/21 07:55:26;;;;;;;23.98;19.73;;;36.70;21.70;;;;;;5134084;27;20037;-56
2022/04/21 07:57:55;;;;;;;20.60;18.60;;;37.30;21.60;;;;;;5113891;27;20447;-59
2022/04/21 08:00:21;;;;;;;21.40;18.88;;;38.10;21.60;;;;;;5133671;27;20023;-58
2022/04/21 08:02:48;;;;;;;21.10;18.00;;;39.00;21.50;;;;;;5132522;27;20034;-59
2022/04/21 08:05:18;;;;;;;22.83;18.48;;;39.80;20.80;;;;;;5114994;27;20080;-53
2022/04/21 08:07:44;;;;;;;20.52;18.50;;;39.10;20.00;;;;;;5133036;27;20023;-55
2022/04/21 08:10:12;;;;;;;22.80;18.90;;;38.40;20.10;;;;;;5114612;27;20164;-56
2022/04/21 08:12:42;;;;;;;20.27;18.20;;;38.60;20.30;;;;;;5114833;27;20106;-54
2022/04/21 08:15:09;;;;;;;21.40;19.23;;;38.70;20.50;;;;;;5133399;27;20019;-55
2022/04/21 08:17:40;;;;;;;21.15;18.80;;;40.00;20.50;;;;;;5115159;27;20030;-56
2022/04/21 08:20:09;;;;;;;21.05;18.58;;;39.70;19.60;;;;;;5132650;27;20095;-53
2022/04/21 08:22:35;;;;;;;20.35;18.15;;;39.60;20.10;;;;;;5114507;27;20031;-56
2022/04/21 08:33:15;;;;;;;21.00;18.10;;;40.70;19.90;;;;;;5132367;27;20105;-57
2022/04/21 08:35:41;;;;;;;20.08;18.08;;;41.00;19.70;;;;;;5131978;27;20020;-54
2022/04/21 08:38:10;;;;;;;21.73;19.20;;;40.50;19.60;;;;;;5132292;27;20128;-56
2022/04/21 08:40:37;;;;;;;22.38;17.92;;;40.10;19.60;;;;;;5132227;27;20094;-59
2022/04/21 08:43:22;;;;;;;22.45;17.90;;;39.60;19.30;;;;;;5131785;27;20038;-56
2022/04/21 08:45:53;;;;;;;21.00;18.70;;;38.50;19.30;;;;;;5113917;27;20019;-65
2022/04/21 08:48:21;;;;;;;21.55;17.77;;;38.00;19.70;;;;;;5111654;27;20039;-58
2022/04/21 08:50:47;;;;;;;47.05;22.85;;;37.90;19.70;;;;;;5131513;27;20034;-53
2022/04/21 08:53:19;;;;;;;19.20;17.00;;;36.40;19.80;;;;;;5097270;27;20027;-52
2022/04/21 08:55:46;;;;;;;19.10;17.08;;;35.50;20.20;;;;;;5113942;27;20106;-61
2022/04/21 08:58:11;;;;;;;19.73;17.55;;;35.00;20.50;;;;;;5132454;27;20031;-53
2022/04/21 09:00:38;;;;;;;18.25;16.55;;;33.30;21.10;;;;;;5132455;27;20023;-54
2022/04/21 09:03:06;;;;;;;22.30;17.45;;;31.20;22.20;;;;;;5113001;27;20062;-55
2022/04/21 09:05:32;;;;;;;22.20;20.00;;;29.00;23.30;;;;;;5132856;27;20148;-57
2022/04/21 09:08:00;;;;;;;25.10;19.92;;;27.30;24.40;;;;;;5131679;27;20478;-60
2022/04/21 09:10:28;;;;;;;27.70;20.45;;;25.80;25.50;;;;;;5132293;27;20045;-56
2022/04/21 09:13:02;;;;;;;26.92;20.98;;;24.90;26.40;;;;;;5113534;27;20095;-56
2022/04/21 09:15:32;;;;;;;30.77;21.73;;;24.00;27.20;;;;;;5132504;27;20015;-54
2022/04/21 09:18:01;;;;;;;22.08;19.65;;;22.60;28.80;;;;;;5113150;27;20015;-56
2022/04/21 09:20:36;;;;;;;37.08;19.95;;;21.70;29.40;;;;;;5132198;27;20027;-55
2022/04/21 09:23:05;;;;;;;31.65;21.58;;;21.20;30.20;;;;;;5131221;27;20023;-56
2022/04/21 09:25:44;;;;;;;22.63;19.65;;;20.80;31.00;;;;;;5113598;28;20119;-57
2022/04/21 09:28:22;;;;;;;24.00;19.17;;;20.40;31.50;;;;;;5131693;27;20029;-55
2022/04/21 09:30:51;;;;;;;21.17;18.63;;;19.90;32.40;;;;;;5131524;27;20055;-64
2022/04/21 09:33:30;;;;;;;22.98;20.50;;;19.60;33.20;;;;;;5132048;27;20023;-55
2022/04/21 09:35:57;;;;;;;23.27;20.45;;;19.20;34.30;;;;;;5131605;28;20026;-57
2022/04/21 09:38:23;;;;;;;26.95;20.02;;;18.80;34.60;;;;;;5132389;27;20418;-56
2022/04/21 09:40:49;;;;;;;24.13;20.50;;;18.40;35.30;;;;;;5112986;28;20019;-63
2022/04/21 09:43:27;;;;;;;24.63;18.60;;;18.20;36.30;;;;;;5131872;27;20027;-56
2022/04/21 09:46:08;;;;;;;29.10;18.35;;;17.70;37.00;;;;;;5131458;28;20055;-53
2022/04/21 09:48:34;;;;;;;27.45;17.80;;;17.50;37.60;;;;;;5115320;27;20167;-54
2022/04/21 09:51:12;;;;;;;20.52;17.85;;;17.70;37.00;;;;;;5117146;27;20035;-56
2022/04/21 09:53:59;;;;;;;31.98;19.27;;;17.90;37.00;;;;;;5136286;27;20045;-54
2022/04/21 09:56:33;;;;;;;21.92;19.30;;;17.90;36.90;;;;;;5117725;27;20064;-56
2022/04/21 09:59:08;;;;;;;25.33;18.58;;;17.80;37.10;;;;;;5116923;27;20019;-56
2022/04/21 10:01:39;;;;;;;23.55;18.38;;;17.80;36.80;;;;;;5117663;27;20100;-52
2022/04/21 10:04:11;;;;;;;20.15;16.17;;;17.80;37.10;;;;;;5135342;27;20098;-54
2022/04/21 10:06:38;;;;;;;19.83;17.50;;;17.80;37.20;;;;;;5136129;27;20027;-53
2022/04/21 10:09:07;;;;;;;20.58;16.40;;;17.70;37.10;;;;;;5135491;27;20128;-57
2022/04/21 10:11:37;;;;;;;21.95;17.40;;;17.70;37.40;;;;;;5117108;27;20047;-57
2022/04/21 10:14:05;;;;;;;29.63;18.45;;;17.70;37.60;;;;;;5134844;27;20027;-58
2022/04/21 10:16:31;;;;;;;22.00;17.77;;;17.60;37.80;;;;;;5116989;27;20524;-55
2022/04/21 10:18:58;;;;;;;25.80;18.98;;;17.70;37.90;;;;;;5116500;27;20115;-54
2022/04/21 10:21:48;;;;;;;25.23;18.08;;;17.50;38.00;;;;;;5116822;27;20023;-50
2022/04/21 10:24:20;;;;;;;26.15;19.20;;;17.50;38.20;;;;;;5135264;27;20015;-48
2022/04/21 10:26:46;;;;;;;35.28;19.95;;;17.30;38.70;;;;;;5135621;27;20027;-54
2022/04/21 10:29:25;;;;;;;38.80;19.35;;;17.10;39.30;;;;;;5116688;27;20517;-54
2022/04/21 10:32:05;;;;;;;22.80;17.80;;;17.30;39.10;;;;;;5116829;27;20028;-63
2022/04/21 10:34:32;;;;;;;33.13;20.13;;;17.50;38.90;;;;;;5135301;27;20448;-52
2022/04/21 10:37:17;;;;;;;25.75;18.52;;;17.40;39.00;;;;;;5115943;27;20027;-56
2022/04/21 10:40:07;;;;;;;22.58;17.83;;;17.50;38.90;;;;;;5135259;27;20052;-57
2022/04/21 10:42:52;;;;;;;25.90;18.23;;;17.60;38.50;;;;;;5097182;28;20043;-59
2022/04/21 10:45:31;;;;;;;26.95;17.58;;;17.60;38.10;;;;;;5092006;28;20022;-54
2022/04/21 10:48:12;;;;;;;24.10;17.85;;;17.70;38.00;;;;;;5090589;28;20031;-56
2022/04/21 10:50:39;;;;;;;18.70;15.50;;;17.80;37.70;;;;;;5091103;28;20393;-53
2022/04/21 10:58:37;;;;;;;24.48;15.65;;;18.00;37.30;;;;;;5092293;28;20543;-60
2022/04/21 11:01:22;;;;;;;21.27;16.77;;;18.10;37.10;;;;;;5090345;28;20031;-54
2022/04/21 11:04:08;;;;;;;19.08;14.95;;;18.20;37.00;;;;;;5091134;28;20437;-58
2022/04/21 11:06:42;;;;;;;25.83;15.60;;;18.10;36.60;;;;;;5092363;28;20148;-55
2022/04/21 11:09:08;;;;;;;19.88;15.63;;;18.10;36.60;;;;;;5092116;28;20080;-56
2022/04/21 11:11:45;;;;;;;23.48;16.70;;;18.00;36.60;;;;;;5092593;28;20468;-55
2022/04/21 11:14:11;;;;;;;25.55;16.90;;;18.00;37.10;;;;;;5091700;28;20013;-53
2022/04/21 11:16:40;;;;;;;22.45;15.77;;;18.10;37.20;;;;;;5092184;28;20035;-57
2022/04/21 11:19:34;;;;;;;12.60;10.93;;;18.10;37.30;;;;;;5091672;28;20023;-57
2022/04/21 11:22:05;;;;;;;14.80;11.50;;;17.90;36.00;;;;;;5091845;28;20077;-54
2022/04/21 11:24:55;;;;;;;16.42;12.05;;;17.90;36.00;;;;;;5090760;28;20024;-57
2022/04/21 11:27:26;;;;;;;18.55;12.77;;;18.00;36.30;;;;;;5089859;28;20634;-57
2022/04/21 11:29:57;;;;;;;12.23;9.25;;;18.10;36.40;;;;;;5090108;28;20028;-55
2022/04/21 11:32:23;;;;;;;11.95;7.47;;;18.30;35.30;;;;;;5090343;28;20024;-53
2022/04/21 11:35:09;;;;;;;19.77;12.48;;;18.20;34.60;;;;;;5090739;28;20027;-53
2022/04/21 11:37:53;;;;;;;10.35;8.20;;;18.10;34.00;;;;;;5090505;28;20063;-57
2022/04/21 11:40:23;;;;;;;10.98;8.60;;;18.30;34.20;;;;;;5091543;28;20024;-55
2022/04/21 11:42:51;;;;;;;9.48;6.85;;;18.30;33.80;;;;;;5103044;27;149596;-55
2022/04/21 11:45:25;;;;;;;9.45;6.80;;;18.30;34.20;;;;;;5114877;27;20229;-56
2022/04/21 11:47:52;;;;;;;8.95;6.68;;;18.30;33.60;;;;;;5115264;27;20051;-56
2022/04/21 11:50:28;;;;;;;8.95;6.05;;;18.40;33.40;;;;;;5114922;27;20035;-56
2022/04/21 11:52:56;;;;;;;10.45;7.18;;;18.30;33.40;;;;;;5115251;27;20025;-55
2022/04/21 11:55:30;;;;;;;7.72;6.70;;;18.40;33.80;;;;;;5133346;27;20019;-57
2022/04/21 11:57:56;;;;;;;15.27;6.75;;;18.30;34.00;;;;;;5115321;27;20071;-59
2022/04/21 12:08:44;;;;;;;10.82;7.20;;;18.70;34.30;;;;;;5133930;27;20084;-58
2022/04/21 12:11:12;;;;;;;9.93;7.13;;;18.60;34.40;;;;;;5131894;27;20027;-61
2022/04/21 12:13:38;;;;;;;12.77;6.70;;;18.70;34.60;;;;;;5133540;27;20039;-56
2022/04/21 12:16:24;;;;;;;7.47;6.57;;;18.90;34.70;;;;;;5114068;27;20023;-54
2022/04/21 12:18:50;;;;;;;12.43;7.75;;;19.10;34.50;;;;;;5133274;27;20019;-56
2022/04/21 12:21:20;;;;;;;14.88;7.85;;;19.20;34.60;;;;;;5132215;27;20449;-55
2022/04/21 12:23:46;;;;;;;13.35;7.15;;;19.30;34.10;;;;;;5132899;27;20110;-55
2022/04/21 12:26:12;;;;;;;7.38;6.57;;;19.20;34.10;;;;;;5132191;27;20027;-55
2022/04/21 12:28:47;;;;;;;7.45;6.40;;;19.30;34.10;;;;;;5132580;27;20072;-55
2022/04/21 12:31:19;;;;;;;8.88;6.22;;;19.30;34.20;;;;;;5113831;27;20484;-57
2022/04/21 12:33:45;;;;;;;11.48;6.55;;;19.30;34.30;;;;;;5132330;27;20090;-54
2022/04/21 12:36:11;;;;;;;8.40;6.05;;;19.30;34.20;;;;;;5113321;27;20067;-57
2022/04/21 12:38:56;;;;;;;6.93;5.88;;;19.30;33.90;;;;;;5113955;27;20424;-58
2022/04/21 12:41:22;;;;;;;8.38;6.38;;;19.40;33.80;;;;;;5131202;27;20091;-55
2022/04/21 12:43:48;;;;;;;8.57;6.30;;;19.20;33.50;;;;;;5132311;27;20451;-55
2022/04/21 12:46:14;;;;;;;9.88;5.57;;;19.10;33.80;;;;;;5132397;27;20031;-55
2022/04/21 12:48:49;;;;;;;8.02;5.80;;;19.00;33.80;;;;;;5097540;27;20029;-57
2022/04/21 12:51:22;;;;;;;8.80;5.32;;;19.00;33.80;;;;;;5113508;27;20030;-54
2022/04/21 12:53:58;;;;;;;7.97;5.72;;;19.10;33.50;;;;;;5132639;27;20030;-56
2022/04/21 12:56:35;;;;;;;8.50;4.70;;;19.00;33.60;;;;;;5132045;27;20394;-56
2022/04/21 12:59:02;;;;;;;7.68;5.97;;;19.10;33.50;;;;;;5114106;27;20018;-59
2022/04/21 13:01:28;;;;;;;8.80;4.97;;;19.10;33.50;;;;;;5113477;27;20027;-54
2022/04/21 13:03:54;;;;;;;10.50;4.82;;;19.30;33.50;;;;;;5131417;27;20015;-54
2022/04/21 13:06:30;;;;;;;8.20;4.82;;;19.40;33.00;;;;;;5131789;27;20055;-58
2022/04/21 13:08:57;;;;;;;7.53;4.55;;;19.60;33.20;;;;;;5132420;27;20075;-56
2022/04/21 13:11:24;;;;;;;6.97;4.30;;;19.70;32.50;;;;;;5131813;27;20046;-54
2022/04/21 13:13:51;;;;;;;7.72;5.00;;;19.70;32.50;;;;;;5113975;27;20105;-58
2022/04/21 13:16:18;;;;;;;7.25;4.60;;;19.80;32.40;;;;;;5113088;27;20027;-56
2022/04/21 13:18:45;;;;;;;8.38;4.22;;;19.80;32.00;;;;;;5113918;27;20026;-54
2022/04/21 13:23:55;;;;;;;5.40;3.90;;;19.90;32.00;;;;;;5132238;27;20435;-59
2022/04/21 13:26:28;;;;;;;9.63;4.25;;;19.90;31.40;;;;;;5112493;28;20054;-53
2022/04/21 13:28:59;;;;;;;7.53;5.40;;;19.70;31.60;;;;;;5131818;27;20023;-54
2022/04/21 13:34:10;;;;;;;6.35;4.10;;;19.90;31.80;;;;;;5131884;27;20416;-57
2022/04/21 13:36:38;;;;;;;5.57;3.78;;;19.80;31.30;;;;;;5132048;27;20023;-54
2022/04/21 13:39:04;;;;;;;10.77;4.35;;;19.70;31.80;;;;;;5113379;28;20068;-58